Time;durP1;ratioP1;P1;durP2;ratioP2;P2;SDS_P1;SDS_P2;PMS_P1;PMS_P2;Temp;Humidity;BMP_temperature;BMP_pressure;BME280_temperature;BME280_humidity;BME280_pressure;Samples;Min_cycle;Max_cycle;Signal;HPM_P1;HPM_P2
2022/04/19 00:00:17;;;;;;;;;9.50;9.00;;;;;15.86;48.63;101038.19;5177207;27;45085;-65
2022/04/19 00:02:42;;;;;;;;;12.25;11.00;;;;;15.79;48.58;101040.81;5174729;27;45265;-64
2022/04/19 00:05:09;;;;;;;;;13.50;13.00;;;;;15.72;48.78;101038.00;5176137;27;45313;-64
2022/04/19 00:07:35;;;;;;;;;8.50;8.50;;;;;15.59;48.93;101005.59;5171666;27;44982;-64
2022/04/19 00:10:00;;;;;;;;;7.25;7.25;;;;;15.76;48.57;101026.44;5176155;27;45066;-64
2022/04/19 00:12:26;;;;;;;;;14.25;8.75;;;;;15.77;48.24;101022.81;5174338;27;45057;-65
2022/04/19 00:14:51;;;;;;;;;8.75;7.00;;;;;15.77;48.07;101025.53;5175312;27;45880;-64
2022/04/19 00:17:16;;;;;;;;;10.00;8.25;;;;;15.75;48.14;101024.56;5177202;27;45103;-64
2022/04/19 00:19:42;;;;;;;;;7.75;7.75;;;;;15.74;48.42;101017.38;5176531;27;46037;-65
2022/04/19 00:22:07;;;;;;;;;9.00;9.00;;;;;15.66;48.04;101002.06;5177370;27;45045;-64
2022/04/19 00:24:33;;;;;;;;;12.25;7.25;;;;;15.73;48.01;101015.59;5158237;27;47636;-65
2022/04/19 00:26:58;;;;;;;;;10.00;10.00;;;;;15.74;48.17;101017.38;5177913;27;45067;-65
2022/04/19 00:29:23;;;;;;;;;11.50;8.00;;;;;15.69;48.44;101021.81;5177397;27;44992;-64
2022/04/19 00:31:49;;;;;;;;;8.75;8.75;;;;;15.67;48.07;101019.09;5178009;27;45018;-64
2022/04/19 00:34:16;;;;;;;;;9.00;9.00;;;;;15.65;47.95;101018.19;5177028;27;45361;-64
2022/04/19 00:36:41;;;;;;;;;7.25;7.25;;;;;15.64;48.20;101022.69;5176849;27;45249;-64
2022/04/19 00:39:06;;;;;;;;;12.00;8.75;;;;;15.66;48.09;101025.41;5176797;27;45021;-64
2022/04/19 00:41:32;;;;;;;;;14.50;8.50;;;;;15.60;47.64;101017.25;5177456;27;45166;-65
2022/04/19 00:43:57;;;;;;;;;6.50;6.50;;;;;15.53;47.27;101015.41;5175640;27;45152;-65
2022/04/19 00:46:23;;;;;;;;;8.00;8.00;;;;;15.46;47.82;101007.25;5176026;27;51461;-63
2022/04/19 00:48:48;;;;;;;;;7.25;6.50;;;;;15.52;47.51;101022.56;5175620;27;45331;-63
2022/04/19 00:51:14;;;;;;;;;10.75;8.25;;;;;15.30;48.24;100987.31;5176056;27;45111;-65
2022/04/19 00:53:42;;;;;;;;;7.00;6.50;;;;;15.25;48.25;100977.41;5176432;27;45215;-64
2022/04/19 00:56:07;;;;;;;;;10.50;9.00;;;;;15.02;48.26;100936.78;5175188;27;45124;-65
2022/04/19 00:58:33;;;;;;;;;8.25;8.00;;;;;15.41;48.22;101003.59;5175480;27;45032;-64
2022/04/19 01:01:00;;;;;;;;;5.00;4.00;;;;;15.38;47.82;101005.38;5173599;27;45206;-63
2022/04/19 01:03:25;;;;;;;;;10.75;10.50;;;;;15.29;47.84;100998.06;5176601;27;45746;-65
2022/04/19 01:05:53;;;;;;;;;10.25;8.25;;;;;15.24;47.85;100997.13;5175890;27;45450;-65
2022/04/19 01:08:19;;;;;;;;;9.50;8.25;;;;;14.85;47.77;100928.50;5175714;27;44963;-65
2022/04/19 01:10:45;;;;;;;;;6.75;6.00;;;;;15.28;47.81;101001.66;5176612;27;45456;-65
2022/04/19 01:13:19;;;;;;;;;9.50;8.00;;;;;15.24;47.60;100997.13;5176549;27;45226;-65
2022/04/19 01:15:49;;;;;;;;;7.50;6.25;;;;;15.26;47.17;101014.19;5176491;27;45066;-65
2022/04/19 01:18:22;;;;;;;;;7.75;7.75;;;;;15.27;47.20;101003.44;5174316;27;45042;-63
2022/04/19 01:20:48;;;;;;;;;8.50;7.25;;;;;15.12;47.37;100989.81;5176017;27;45351;-65
2022/04/19 01:23:14;;;;;;;;;7.50;7.50;;;;;15.13;47.15;101010.47;5176225;27;45740;-64
2022/04/19 01:25:40;;;;;;;;;6.50;5.00;;;;;15.05;47.08;101007.69;5174548;27;46304;-65
2022/04/19 01:28:06;;;;;;;;;7.00;5.00;;;;;15.05;46.66;101004.09;5174120;27;45718;-64
2022/04/19 01:30:33;;;;;;;;;5.25;5.25;;;;;15.09;46.92;101008.63;5175063;27;45143;-65
2022/04/19 01:32:59;;;;;;;;;4.00;4.00;;;;;15.11;46.42;100999.69;5173648;27;45739;-65
2022/04/19 01:35:24;;;;;;;;;5.00;4.00;;;;;14.95;46.10;100983.31;5174316;27;44978;-64
2022/04/19 01:37:51;;;;;;;;;6.00;6.00;;;;;14.93;45.97;100984.22;5175451;27;45010;-64
2022/04/19 01:40:17;;;;;;;;;5.75;5.00;;;;;14.99;45.88;100987.88;5175454;27;44944;-65
2022/04/19 01:42:47;;;;;;;;;4.50;4.50;;;;;14.93;46.11;100988.69;5175192;27;45703;-64
2022/04/19 01:45:14;;;;;;;;;7.00;5.25;;;;;14.73;45.95;100966.91;5175528;27;44990;-64
2022/04/19 01:47:39;;;;;;;;;10.50;6.75;;;;;14.79;45.69;100993.91;5176020;27;44959;-64
2022/04/19 01:50:09;;;;;;;;;7.50;6.00;;;;;14.80;46.32;100997.47;5176237;27;45015;-65
2022/04/19 01:52:35;;;;;;;;;7.50;5.00;;;;;14.74;46.22;100993.81;5175743;27;45500;-64
2022/04/19 01:55:01;;;;;;;;;6.00;5.25;;;;;14.69;46.21;100998.25;5168891;27;45080;-65
2022/04/19 01:57:26;;;;;;;;;4.50;4.50;;;;;14.68;46.12;100995.53;5176427;27;45056;-65
2022/04/19 01:59:51;;;;;;;;;5.50;5.50;;;;;14.65;45.99;100998.19;5176552;27;44986;-65
2022/04/19 02:02:17;;;;;;;;;5.00;5.00;;;;;14.66;45.53;101002.69;5175577;27;45117;-64
2022/04/19 02:04:42;;;;;;;;;6.25;6.25;;;;;14.56;45.89;100993.56;5175398;27;45094;-64
2022/04/19 02:07:08;;;;;;;;;5.00;5.00;;;;;14.46;46.11;100975.50;5175352;27;45124;-63
2022/04/19 02:09:34;;;;;;;;;4.00;3.75;;;;;14.50;46.08;100990.78;5175976;27;44956;-65
2022/04/19 02:12:00;;;;;;;;;6.00;6.00;;;;;14.52;46.03;100998.00;5157114;27;45738;-64
2022/04/19 02:14:26;;;;;;;;;5.25;5.00;;;;;14.49;45.41;101000.63;5175341;27;45028;-65
2022/04/19 02:16:53;;;;;;;;;5.00;4.00;;;;;14.49;45.80;100984.50;5176111;27;45113;-63
2022/04/19 02:19:18;;;;;;;;;8.25;5.00;;;;;14.51;45.30;100995.28;5175606;27;45084;-65
2022/04/19 02:21:45;;;;;;;;;5.50;5.50;;;;;14.40;45.87;100989.72;5175387;27;46014;-65
2022/04/19 02:24:10;;;;;;;;;7.25;5.75;;;;;14.31;45.51;100982.44;5167724;27;45138;-66
2022/04/19 02:26:36;;;;;;;;;8.00;7.00;;;;;13.95;45.99;100934.44;5175570;27;45162;-65
2022/04/19 02:29:01;;;;;;;;;5.75;5.75;;;;;14.31;46.91;100993.19;5176327;27;45249;-65
2022/04/19 02:31:27;;;;;;;;;8.00;7.00;;;;;14.37;46.59;100993.28;5174775;27;45642;-65
2022/04/19 02:33:53;;;;;;;;;8.75;5.75;;;;;14.42;46.75;100989.75;5175520;27;45115;-64
2022/04/19 02:36:19;;;;;;;;;7.75;6.50;;;;;14.45;46.39;100989.81;5165744;27;45080;-66
2022/04/19 02:38:44;;;;;;;;;5.50;4.00;;;;;14.37;45.92;100976.28;5172602;27;45033;-64
2022/04/19 02:41:09;;;;;;;;;6.50;6.25;;;;;14.40;46.34;100987.03;5173420;27;45718;-65
2022/04/19 02:43:35;;;;;;;;;6.75;5.50;;;;;14.27;46.26;100985.97;5172317;27;45420;-65
2022/04/19 02:46:00;;;;;;;;;5.50;5.50;;;;;14.19;46.19;100990.34;5177649;27;45174;-64
2022/04/19 02:48:28;;;;;;;;;3.00;3.00;;;;;14.12;46.37;100981.28;5175952;27;45454;-65
2022/04/19 02:50:53;;;;;;;;;10.00;6.75;;;;;13.97;46.55;100960.44;5175724;27;45761;-65
2022/04/19 02:53:19;;;;;;;;;7.00;6.25;;;;;14.18;46.07;100986.72;5171460;27;45145;-64
2022/04/19 02:55:44;;;;;;;;;7.50;6.75;;;;;14.21;46.43;100990.38;5178699;27;45085;-65
2022/04/19 02:58:09;;;;;;;;;4.25;4.25;;;;;14.16;45.80;100979.53;5178216;27;45038;-65
2022/04/19 03:00:35;;;;;;;;;7.25;5.50;;;;;14.06;46.23;100982.97;5178696;27;45205;-65
2022/04/19 03:03:00;;;;;;;;;6.25;6.25;;;;;13.97;46.62;100981.94;5178718;27;45042;-64
2022/04/19 03:05:26;;;;;;;;;7.50;6.50;;;;;13.90;46.14;100982.69;5179125;27;45126;-64
2022/04/19 03:07:52;;;;;;;;;10.50;7.25;;;;;13.82;46.66;100976.28;5159436;27;45175;-66
2022/04/19 03:10:17;;;;;;;;;7.75;7.75;;;;;13.68;47.02;100956.34;5178147;27;45419;-64
2022/04/19 03:12:43;;;;;;;;;11.25;8.00;;;;;13.77;46.15;100965.47;5155971;27;45193;-64
2022/04/19 03:15:10;;;;;;;;;5.25;5.25;;;;;13.80;46.00;100973.59;5178467;27;45063;-65
2022/04/19 03:17:36;;;;;;;;;5.00;3.75;;;;;13.76;46.44;100973.50;5171965;27;45428;-64
2022/04/19 03:20:02;;;;;;;;;5.75;4.00;;;;;13.76;45.62;100969.06;5178178;27;45915;-65
2022/04/19 03:27:41;;;;;;;;;8.50;5.50;;;;;13.75;46.37;100971.72;5159656;27;45177;-64
2022/04/19 03:27:59;;;;;;;;;4.00;4.00;;;;;13.75;45.85;100971.72;5178168;27;45105;-65
2022/04/19 03:30:25;;;;;;;;;4.25;3.00;;;;;13.69;46.53;100969.81;5177036;27;45266;-65
2022/04/19 03:32:53;;;;;;;;;4.00;2.75;;;;;13.62;46.00;100975.97;5178372;27;44990;-65
2022/04/19 03:35:19;;;;;;;;;6.00;3.00;;;;;13.62;45.93;100966.13;5177872;27;44957;-65
2022/04/19 03:37:44;;;;;;;;;4.50;3.50;;;;;13.63;45.65;100965.25;5176618;27;45079;-64
2022/04/19 03:40:10;;;;;;;;;9.00;4.75;;;;;13.63;45.87;100967.94;5176885;27;45032;-65
2022/04/19 03:42:36;;;;;;;;;6.00;4.00;;;;;13.38;45.58;100933.47;5176788;27;45385;-65
2022/04/19 03:45:01;;;;;;;;;4.00;4.00;;;;;13.04;46.24;100887.22;5177728;27;45223;-65
2022/04/19 03:47:27;;;;;;;;;4.50;2.50;;;;;13.43;46.04;100961.31;5173080;27;44944;-64
2022/04/19 03:49:52;;;;;;;;;3.75;3.00;;;;;13.45;46.32;100959.56;5177162;27;45513;-65
2022/04/19 03:52:17;;;;;;;;;6.00;5.00;;;;;13.53;46.49;100957.91;5176922;27;44899;-65
2022/04/19 03:54:42;;;;;;;;;5.00;5.00;;;;;13.54;46.42;100962.38;5175563;27;45200;-65
2022/04/19 03:57:10;;;;;;;;;5.25;5.25;;;;;13.55;46.32;100961.53;5156284;27;45121;-66
2022/04/19 03:59:38;;;;;;;;;4.25;3.00;;;;;13.58;46.01;100948.16;5163818;27;45333;-64
2022/04/19 04:02:04;;;;;;;;;7.25;5.75;;;;;13.61;46.59;100952.66;5157264;27;45369;-64
2022/04/19 04:04:34;;;;;;;;;4.25;4.25;;;;;13.53;47.21;100943.56;5168855;27;45280;-64
2022/04/19 04:07:05;;;;;;;;;10.00;5.00;;;;;13.60;47.38;100948.19;5164903;27;45439;-65
2022/04/19 04:09:32;;;;;;;;;6.00;6.00;;;;;13.60;47.21;100948.19;5171886;27;46049;-65
2022/04/19 04:12:09;;;;;;;;;6.00;5.00;;;;;13.49;47.29;100937.25;5161027;27;45482;-65
2022/04/19 04:14:35;;;;;;;;;6.00;5.00;;;;;13.57;47.35;100954.41;5164348;27;45317;-65
2022/04/19 04:17:01;;;;;;;;;4.75;4.25;;;;;13.58;47.39;100952.63;5158445;27;45444;-63
2022/04/19 04:19:27;;;;;;;;;8.25;5.50;;;;;13.63;47.99;100959.00;5153215;27;48355;-65
2022/04/19 04:21:52;;;;;;;;;4.50;4.00;;;;;13.59;47.38;100947.25;5138581;27;45382;-64
2022/04/19 04:24:17;;;;;;;;;5.25;5.25;;;;;13.60;47.47;100950.88;5137701;27;45383;-62
2022/04/19 04:26:43;;;;;;;;;6.25;3.50;;;;;13.59;47.69;100951.75;5138585;27;45377;-63
2022/04/19 04:29:08;;;;;;;;;2.00;2.00;;;;;13.54;47.65;100950.75;5138884;27;49606;-65
2022/04/19 04:31:33;;;;;;;;;5.00;3.50;;;;;13.50;47.24;100946.22;5143620;27;45315;-64
2022/04/19 04:33:59;;;;;;;;;5.00;4.25;;;;;13.45;48.13;100949.72;5139528;27;45727;-64
2022/04/19 04:36:25;;;;;;;;;6.50;3.50;;;;;13.43;48.19;100946.13;5146622;27;45288;-64
2022/04/19 04:38:50;;;;;;;;;6.00;4.50;;;;;13.27;48.24;100922.53;5150869;27;45577;-64
2022/04/19 04:41:15;;;;;;;;;7.75;3.00;;;;;13.49;48.67;100955.16;5151715;27;45137;-65
2022/04/19 04:43:41;;;;;;;;;5.50;4.75;;;;;13.46;48.74;100950.63;5154567;27;45228;-65
2022/04/19 04:51:35;;;;;;;;;6.75;5.75;;;;;13.46;48.67;100964.03;5136906;27;45472;-63
2022/04/19 04:54:00;;;;;;;;;5.50;4.25;;;;;13.47;48.79;100978.38;5143998;27;45484;-65
2022/04/19 04:56:25;;;;;;;;;7.00;4.25;;;;;13.48;49.00;100965.00;5141782;27;45387;-65
2022/04/19 04:58:51;;;;;;;;;4.00;4.00;;;;;13.47;49.69;100970.34;5140062;27;45773;-65
2022/04/19 05:01:16;;;;;;;;;4.25;4.25;;;;;13.39;49.70;100975.53;5152045;27;45093;-64
2022/04/19 05:03:41;;;;;;;;;6.00;5.00;;;;;13.21;50.38;100957.28;5154150;27;45352;-64
2022/04/19 05:06:07;;;;;;;;;5.75;5.00;;;;;13.14;50.35;100971.47;5155724;27;45021;-65
2022/04/19 05:08:32;;;;;;;;;26.00;23.25;;;;;13.22;51.13;100981.47;5155392;27;45881;-65
2022/04/19 05:10:58;;;;;;;;;5.25;4.00;;;;;13.22;51.12;100976.09;5149286;27;45236;-66
2022/04/19 05:13:23;;;;;;;;;6.25;5.25;;;;;12.99;51.65;100964.91;5146728;27;45311;-65
2022/04/19 05:15:49;;;;;;;;;5.00;3.50;;;;;13.09;51.45;100971.38;5148443;27;45413;-64
2022/04/19 05:18:14;;;;;;;;;5.00;5.00;;;;;13.18;50.89;100984.06;5139571;27;45465;-65
2022/04/19 05:20:41;;;;;;;;;5.25;4.00;;;;;13.22;51.54;100980.56;5168957;27;45273;-63
2022/04/19 05:23:06;;;;;;;;;7.75;6.00;;;;;13.31;51.98;100998.63;5174639;27;45072;-65
2022/04/19 05:25:32;;;;;;;;;5.25;3.75;;;;;13.19;51.09;100975.16;5175115;27;44993;-65
2022/04/19 05:27:57;;;;;;;;;5.00;3.50;;;;;13.20;51.12;100987.66;5176029;27;45579;-65
2022/04/19 05:30:23;;;;;;;;;9.50;7.75;;;;;13.19;51.85;100978.72;5176281;27;45124;-66
2022/04/19 05:32:48;;;;;;;;;6.75;6.75;;;;;13.24;51.67;100984.19;5174713;27;45513;-64
2022/04/19 05:35:14;;;;;;;;;6.00;4.75;;;;;13.14;51.89;100984.88;5172697;27;45047;-64
2022/04/19 05:37:40;;;;;;;;;6.00;4.25;;;;;12.85;52.33;100951.25;5175697;27;45397;-63
2022/04/19 05:40:06;;;;;;;;;4.75;3.75;;;;;12.97;53.04;100979.16;5176436;27;45021;-65
2022/04/19 05:42:32;;;;;;;;;9.50;5.00;;;;;12.99;52.53;100985.47;5176361;27;44942;-64
2022/04/19 05:44:57;;;;;;;;;7.50;5.50;;;;;12.81;52.45;100961.88;5176202;27;45019;-64
2022/04/19 05:47:23;;;;;;;;;8.00;5.00;;;;;12.96;53.27;100980.94;5175589;27;52814;-65
2022/04/19 05:49:48;;;;;;;;;5.50;4.25;;;;;13.08;52.30;100991.00;5174699;27;45102;-65
2022/04/19 05:52:14;;;;;;;;;7.75;6.00;;;;;12.97;52.43;100963.06;5173416;27;45082;-65
2022/04/19 05:54:39;;;;;;;;;6.75;3.25;;;;;13.17;53.19;100991.22;5173463;27;45369;-65
2022/04/19 05:57:04;;;;;;;;;6.25;4.75;;;;;13.21;52.78;100986.81;5172468;27;45606;-64
2022/04/19 05:59:30;;;;;;;;;11.25;4.00;;;;;13.21;53.44;100986.81;5166539;27;45370;-65
2022/04/19 06:04:54;;;;;;;;;8.00;5.50;;;;;13.26;52.31;100979.75;5164332;27;45503;-65
2022/04/19 06:07:27;;;;;;;;;7.25;7.25;;;;;13.31;53.23;100978.03;5171714;27;45739;-66
2022/04/19 06:09:53;;;;;;;;;6.50;6.50;;;;;13.37;53.09;100978.19;5169153;27;44990;-66
2022/04/19 06:12:19;;;;;;;;;10.50;8.75;;;;;13.43;53.51;100983.69;5173193;27;45306;-65
2022/04/19 06:14:45;;;;;;;;;6.75;6.75;;;;;13.47;52.80;100989.13;5153980;27;45059;-66
2022/04/19 06:17:14;;;;;;;;;8.00;6.00;;;;;13.33;52.77;100953.97;5174690;27;45369;-66
2022/04/19 06:19:40;;;;;;;;;12.00;7.50;;;;;13.53;53.44;100987.44;5166822;27;45438;-66
2022/04/19 06:22:05;;;;;;;;;7.50;5.75;;;;;13.52;52.96;100982.94;5156957;27;46809;-66
2022/04/19 06:24:31;;;;;;;;;7.00;5.25;;;;;13.39;53.02;100954.97;5156461;27;45592;-65
2022/04/19 06:26:56;;;;;;;;;12.00;10.00;;;;;13.56;52.76;101006.31;5155739;27;46010;-65
2022/04/19 06:29:22;;;;;;;;;8.00;7.00;;;;;13.53;53.14;100989.22;5155770;27;45368;-67
2022/04/19 06:31:47;;;;;;;;;13.75;10.50;;;;;13.55;52.76;100985.69;5136997;27;45356;-67
2022/04/19 06:34:13;;;;;;;;;17.25;15.25;;;;;13.56;53.44;100983.91;5156068;27;45515;-66
2022/04/19 06:36:38;;;;;;;;;12.00;10.75;;;;;13.55;53.25;100991.06;5156386;27;46399;-67
2022/04/19 06:39:04;;;;;;;;;11.75;9.00;;;;;13.53;53.34;100986.53;5154312;27;45518;-67
2022/04/19 06:41:29;;;;;;;;;12.75;9.25;;;;;13.49;54.14;100988.25;5158250;27;45495;-66
2022/04/19 06:43:58;;;;;;;;;10.50;7.00;;;;;13.45;53.53;100979.25;5159653;27;45447;-66
2022/04/19 06:46:26;;;;;;;;;9.00;7.00;;;;;13.48;53.38;100977.47;5154951;27;45731;-66
2022/04/19 06:48:56;;;;;;;;;7.75;7.75;;;;;13.51;53.66;100980.22;5163232;27;45132;-66
2022/04/19 06:51:22;;;;;;;;;7.75;7.50;;;;;13.54;53.06;100980.28;5173447;27;45271;-66
2022/04/19 06:53:48;;;;;;;;;18.00;17.25;;;;;13.55;53.23;100977.63;5170410;27;45299;-67
2022/04/19 06:56:14;;;;;;;;;10.25;8.75;;;;;13.59;53.02;100978.59;5149705;27;45395;-66
2022/04/19 06:58:39;;;;;;;;;6.75;6.75;;;;;13.56;53.23;100951.69;5156114;27;45528;-66
2022/04/19 07:01:06;;;;;;;;;14.00;10.00;;;;;13.71;52.37;100967.16;5155922;27;45482;-66
2022/04/19 07:03:33;;;;;;;;;17.00;15.00;;;;;13.57;52.40;100964.25;5156155;27;45343;-66
2022/04/19 07:05:58;;;;;;;;;11.50;9.75;;;;;13.75;52.66;100983.34;5155353;27;46091;-66
2022/04/19 07:08:23;;;;;;;;;12.75;10.50;;;;;13.72;52.17;100972.56;5155136;27;45357;-66
2022/04/19 07:10:49;;;;;;;;;12.75;10.50;;;;;13.85;52.61;100976.34;5155642;27;45499;-66
2022/04/19 07:13:14;;;;;;;;;10.75;9.75;;;;;13.78;51.61;100964.59;5156418;27;45693;-66
2022/04/19 07:15:40;;;;;;;;;13.00;10.75;;;;;13.85;51.90;100978.16;5155471;27;45550;-66
2022/04/19 07:18:05;;;;;;;;;19.00;14.00;;;;;13.86;52.23;100972.81;5155775;27;45276;-66
2022/04/19 07:28:43;;;;;;;;;15.75;12.50;;;;;14.12;51.32;100977.66;5155496;27;45452;-65
2022/04/19 07:31:13;;;;;;;;;17.75;14.25;;;;;14.21;51.34;100972.44;5156799;27;45539;-66
2022/04/19 07:33:39;;;;;;;;;22.50;19.25;;;;;14.33;51.30;100971.72;5159604;27;45522;-66
2022/04/19 07:36:05;;;;;;;;;13.00;13.00;;;;;14.43;50.77;100970.97;5158992;27;46161;-66
2022/04/19 07:38:30;;;;;;;;;15.25;13.25;;;;;14.42;49.86;100958.44;5158708;27;45325;-66
2022/04/19 07:40:57;;;;;;;;;17.25;16.00;;;;;14.35;50.16;100943.06;5159056;27;45474;-66
2022/04/19 07:43:23;;;;;;;;;13.50;12.50;;;;;14.55;49.55;100960.41;5158394;27;45521;-67
2022/04/19 07:45:48;;;;;;;;;9.75;9.75;;;;;14.69;49.41;100967.78;5160015;27;45503;-66
2022/04/19 07:48:15;;;;;;;;;10.75;9.75;;;;;14.73;49.00;100975.91;5159273;27;47072;-66
2022/04/19 07:50:40;;;;;;;;;16.00;12.75;;;;;14.75;48.51;100973.25;5159929;27;45506;-66
2022/04/19 07:53:05;;;;;;;;;14.25;11.75;;;;;14.82;48.89;100983.19;5160150;27;45416;-66
2022/04/19 07:55:31;;;;;;;;;12.75;12.50;;;;;14.82;48.56;100968.84;5159234;27;45556;-66
2022/04/19 07:57:57;;;;;;;;;12.00;10.75;;;;;14.78;48.96;100970.56;5158910;27;45436;-65
2022/04/19 08:00:27;;;;;;;;;11.75;11.00;;;;;14.81;48.58;100967.91;5158808;27;45406;-66
2022/04/19 08:02:52;;;;;;;;;12.50;10.75;;;;;14.91;48.81;100961.78;5152674;27;45455;-66
2022/04/19 08:05:17;;;;;;;;;16.50;12.50;;;;;14.95;47.98;100967.16;5158014;27;45684;-65
2022/04/19 08:07:43;;;;;;;;;26.75;20.75;;;;;15.03;47.68;100952.94;5158138;27;45481;-65
2022/04/19 08:10:08;;;;;;;;;7.75;7.00;;;;;15.15;46.98;100964.75;5158696;27;45346;-66
2022/04/19 08:12:34;;;;;;;;;15.50;9.75;;;;;14.85;47.24;100888.16;5159017;27;45316;-66
2022/04/19 08:14:59;;;;;;;;;16.00;13.00;;;;;15.28;47.42;100937.97;5158082;27;45399;-66
2022/04/19 08:17:25;;;;;;;;;12.50;11.00;;;;;15.34;46.38;100949.66;5157986;27;45395;-65
2022/04/19 08:19:50;;;;;;;;;17.50;11.75;;;;;15.39;46.08;100956.94;5158298;27;45261;-65
2022/04/19 08:22:16;;;;;;;;;17.75;12.75;;;;;15.55;45.47;100968.72;5158677;27;45504;-66
2022/04/19 08:24:42;;;;;;;;;14.00;11.25;;;;;15.60;45.78;100952.63;5139084;27;46955;-65
2022/04/19 08:27:07;;;;;;;;;14.75;12.00;;;;;15.23;45.31;100880.50;5158246;27;45356;-65
2022/04/19 08:29:32;;;;;;;;;12.75;10.25;;;;;15.81;45.27;100957.31;5157367;27;45487;-66
2022/04/19 08:31:58;;;;;;;;;12.75;12.75;;;;;15.78;45.44;100933.94;5158349;27;45301;-66
2022/04/19 08:34:23;;;;;;;;;13.25;13.25;;;;;15.98;44.93;100957.44;5157793;27;46218;-66
2022/04/19 08:36:49;;;;;;;;;12.00;11.75;;;;;15.93;43.92;100954.72;5157960;27;45566;-66
2022/04/19 08:39:14;;;;;;;;;11.25;11.25;;;;;15.88;44.24;100937.63;5158243;27;45312;-66
2022/04/19 08:41:41;;;;;;;;;15.25;11.50;;;;;16.07;44.25;100957.53;5157937;27;45608;-66
2022/04/19 08:44:07;;;;;;;;;15.00;15.00;;;;;16.18;44.10;100950.38;5157928;27;45468;-65
2022/04/19 08:46:33;;;;;;;;;13.00;11.50;;;;;16.28;43.53;100958.56;5157686;27;45387;-65
2022/04/19 08:49:03;;;;;;;;;12.00;9.25;;;;;16.28;43.08;100951.34;5157611;27;45413;-65
2022/04/19 08:51:32;;;;;;;;;22.25;18.25;;;;;16.39;43.45;100952.31;5158085;27;45521;-65
2022/04/19 08:59:30;;;;;;;;;11.25;9.75;;;;;16.57;42.37;100946.13;5157727;27;45362;-66
2022/04/19 09:01:57;;;;;;;;;13.25;10.00;;;;;16.55;41.76;100922.75;5157413;27;45445;-65
2022/04/19 09:04:23;;;;;;;;;11.25;10.50;;;;;16.86;41.90;100936.38;5156604;27;45482;-65
2022/04/19 09:07:06;;;;;;;;;10.75;9.75;;;;;17.00;41.31;100936.44;5157116;27;45318;-65
2022/04/19 09:09:34;;;;;;;;;10.00;10.00;;;;;17.03;40.81;100920.28;5156746;27;45494;-66
2022/04/19 09:12:07;;;;;;;;;13.00;12.25;;;;;17.05;40.65;100908.56;5157409;27;45486;-66
2022/04/19 09:14:33;;;;;;;;;18.00;10.75;;;;;17.22;39.96;100932.88;5156740;27;46048;-66
2022/04/19 09:17:03;;;;;;;;;6.75;6.50;;;;;17.30;40.05;100920.28;5156987;27;45238;-67
2022/04/19 09:19:29;;;;;;;;;8.75;8.75;;;;;17.24;40.38;100893.31;5156862;27;45327;-66
2022/04/19 09:21:55;;;;;;;;;10.50;9.50;;;;;17.54;39.79;100920.31;5157325;27;45309;-65
2022/04/19 09:24:22;;;;;;;;;11.25;8.25;;;;;17.63;38.97;100925.75;5157013;27;45581;-66
2022/04/19 09:26:48;;;;;;;;;17.50;11.25;;;;;17.69;39.93;100926.63;5156539;27;45304;-66
2022/04/19 09:29:21;;;;;;;;;10.00;8.00;;;;;17.92;39.69;100924.84;5156978;27;45416;-66
2022/04/19 09:31:58;;;;;;;;;13.00;11.50;;;;;18.17;38.98;100928.44;5157569;27;45270;-65
2022/04/19 09:34:28;;;;;;;;;9.25;8.75;;;;;18.24;38.15;100925.69;5137669;27;47086;-66
2022/04/19 09:37:13;;;;;;;;;11.50;10.50;;;;;18.28;38.56;100910.38;5156583;27;45464;-66
2022/04/19 09:39:41;;;;;;;;;17.25;12.25;;;;;18.36;38.67;100911.25;5155954;27;45477;-65
2022/04/19 09:42:12;;;;;;;;;18.50;14.25;;;;;18.44;38.40;100915.72;5157066;27;45462;-64
2022/04/19 09:44:43;;;;;;;;;18.00;16.50;;;;;18.47;37.84;100907.63;5156305;27;46238;-66
2022/04/19 09:47:13;;;;;;;;;18.25;14.25;;;;;18.49;37.98;100903.97;5156801;27;45574;-67
2022/04/19 09:49:49;;;;;;;;;18.25;11.00;;;;;18.52;38.13;100903.97;5156593;27;45461;-66
2022/04/19 09:52:23;;;;;;;;;26.00;21.50;;;;;18.55;38.12;100916.59;5151006;27;45464;-67
2022/04/19 09:55:06;;;;;;;;;21.00;17.25;;;;;18.50;38.30;100907.59;5155535;27;46544;-66
2022/04/19 09:57:35;;;;;;;;;9.75;9.75;;;;;18.34;38.33;100895.94;5156340;27;45395;-65
2022/04/19 10:00:04;;;;;;;;;31.25;27.25;;;;;18.04;38.58;100851.84;5156202;27;45537;-65
2022/04/19 10:08:11;;;;;;;;;7.50;6.25;;;;;18.31;38.84;100898.63;5155958;27;45351;-65
2022/04/19 10:10:38;;;;;;;;;8.25;7.25;;;;;18.31;38.98;100887.81;5156202;27;45489;-65
2022/04/19 10:13:04;;;;;;;;;18.25;14.75;;;;;18.37;39.13;100883.28;5156800;27;45527;-65
2022/04/19 10:15:33;;;;;;;;;9.25;8.25;;;;;18.37;39.22;100866.16;5155820;27;45635;-65
2022/04/19 10:17:59;;;;;;;;;11.00;10.75;;;;;18.47;39.23;100877.84;5156870;27;45275;-65
2022/04/19 10:20:33;;;;;;;;;11.00;8.25;;;;;18.58;39.01;100874.19;5156412;27;45616;-66
2022/04/19 10:23:03;;;;;;;;;8.00;8.00;;;;;18.55;38.61;100857.06;5156671;27;45411;-65
2022/04/19 10:25:45;;;;;;;;;8.00;6.75;;;;;18.62;38.94;100860.66;5156097;27;45483;-66
2022/04/19 10:28:15;;;;;;;;;12.25;9.00;;;;;18.72;38.68;100865.97;5155903;27;45355;-66
2022/04/19 10:30:51;;;;;;;;;6.25;6.25;;;;;18.82;38.78;100864.13;5136827;27;45315;-65
2022/04/19 10:33:38;;;;;;;;;10.25;9.25;;;;;19.01;38.64;100861.38;5137224;27;45332;-66
2022/04/19 10:36:10;;;;;;;;;13.50;11.00;;;;;19.10;38.11;100859.47;5151724;27;45433;-66
2022/04/19 10:38:35;;;;;;;;;9.50;8.50;;;;;19.13;38.16;100861.28;5155682;27;45302;-66
2022/04/19 10:41:01;;;;;;;;;13.00;10.00;;;;;19.17;37.92;100857.63;5155560;27;45330;-65
2022/04/19 10:43:27;;;;;;;;;13.50;13.50;;;;;19.28;38.10;100852.13;5155544;27;45434;-66
2022/04/19 10:45:54;;;;;;;;;15.00;14.50;;;;;19.05;37.93;100806.25;5155237;27;45944;-66
2022/04/19 10:48:20;;;;;;;;;9.50;9.50;;;;;19.44;37.97;100855.63;5155732;27;45314;-66
2022/04/19 10:50:50;;;;;;;;;11.50;9.50;;;;;19.40;37.73;100843.91;5155743;27;45580;-66
2022/04/19 10:53:16;;;;;;;;;9.75;8.50;;;;;19.31;37.95;100827.72;5155747;27;45327;-66
2022/04/19 10:56:01;;;;;;;;;21.25;11.00;;;;;19.41;37.84;100834.84;5155463;27;47096;-66
2022/04/19 10:58:43;;;;;;;;;16.50;16.50;;;;;19.54;37.85;100829.34;5155449;27;45357;-65
2022/04/19 11:01:32;;;;;;;;;11.00;9.00;;;;;19.70;37.57;100844.56;5155352;27;45478;-66
2022/04/19 11:03:58;;;;;;;;;9.50;8.00;;;;;19.64;37.43;100823.81;5155714;27;45262;-66
2022/04/19 11:06:40;;;;;;;;;13.50;12.00;;;;;19.81;37.10;100839.03;5158258;27;47069;-66
2022/04/19 11:09:10;;;;;;;;;14.25;12.50;;;;;19.80;37.24;100831.81;5158949;27;45431;-66
2022/04/19 11:11:45;;;;;;;;;14.50;11.25;;;;;19.69;37.96;100835.50;5158935;27;45364;-66
2022/04/19 11:14:21;;;;;;;;;16.50;11.50;;;;;19.65;37.92;100835.53;5159274;27;45303;-66
2022/04/19 11:16:50;;;;;;;;;8.50;6.00;;;;;19.29;38.25;100791.63;5139513;27;46123;-65
2022/04/19 11:19:19;;;;;;;;;52.00;42.50;;;;;19.34;38.63;100823.19;5151027;27;45503;-67
2022/04/19 11:21:56;;;;;;;;;12.25;10.50;;;;;19.50;38.89;100823.03;5159357;27;45659;-66
2022/04/19 11:24:59;;;;;;;;;21.50;18.50;;;;;19.60;38.78;100823.84;5158908;27;45339;-65
2022/04/19 11:27:53;;;;;;;;;15.50;14.50;;;;;19.70;38.67;100825.56;5158325;27;45562;-66
2022/04/19 11:30:25;;;;;;;;;13.25;11.75;;;;;19.72;38.62;100818.31;5158422;27;45331;-66
2022/04/19 11:32:52;;;;;;;;;17.00;14.75;;;;;19.82;38.62;100830.88;5158133;27;45388;-66
2022/04/19 11:35:19;;;;;;;;;19.00;14.75;;;;;19.94;37.79;100828.97;5158813;27;45398;-66
2022/04/19 11:37:45;;;;;;;;;18.00;13.50;;;;;19.96;37.26;100827.13;5158479;27;45434;-66
2022/04/19 11:48:47;;;;;;;;;14.25;11.50;;;;;20.16;37.18;100819.69;5158317;27;45832;-66
2022/04/19 11:51:13;;;;;;;;;17.75;16.25;;;;;20.13;37.15;100814.28;5158062;27;45483;-65
2022/04/19 11:53:39;;;;;;;;;16.75;16.00;;;;;20.14;37.24;100817.88;5157822;27;45481;-65
2022/04/19 11:56:06;;;;;;;;;17.00;13.00;;;;;20.02;37.14;100817.09;5158478;27;45429;-66
2022/04/19 11:58:32;;;;;;;;;12.00;12.00;;;;;19.81;37.46;100806.50;5158276;27;45998;-65